sensor_id;sensor_type;location;lat;lon;timestamp;P1;durP1;ratioP1;P2;durP2;ratioP2
19907;SDS011;10116;53.112;7.356;2023-07-31T00:00:07;1.90;;;1.80;;
19907;SDS011;10116;53.112;7.356;2023-07-31T00:02:36;1.93;;;1.77;;
19907;SDS011;10116;53.112;7.356;2023-07-31T00:05:02;1.67;;;1.53;;
19907;SDS011;10116;53.112;7.356;2023-07-31T00:07:27;1.53;;;1.43;;
19907;SDS011;10116;53.112;7.356;2023-07-31T00:09:53;2.10;;;1.70;;
19907;SDS011;10116;53.112;7.356;2023-07-31T00:12:22;1.70;;;1.57;;
19907;SDS011;10116;53.112;7.356;2023-07-31T00:14:48;2.83;;;1.70;;
19907;SDS011;10116;53.112;7.356;2023-07-31T00:17:13;4.70;;;1.57;;
19907;SDS011;10116;53.112;7.356;2023-07-31T00:19:39;1.90;;;1.60;;
19907;SDS011;10116;53.112;7.356;2023-07-31T00:22:05;2.00;;;1.70;;
19907;SDS011;10116;53.112;7.356;2023-07-31T00:24:31;2.60;;;1.67;;
19907;SDS011;10116;53.112;7.356;2023-07-31T00:26:56;5.87;;;5.47;;
19907;SDS011;10116;53.112;7.356;2023-07-31T00:29:22;1.20;;;1.20;;
19907;SDS011;10116;53.112;7.356;2023-07-31T00:31:47;1.40;;;1.30;;
19907;SDS011;10116;53.112;7.356;2023-07-31T00:34:13;2.30;;;1.90;;
19907;SDS011;10116;53.112;7.356;2023-07-31T00:36:39;2.10;;;1.53;;
19907;SDS011;10116;53.112;7.356;2023-07-31T00:39:04;2.87;;;2.77;;
19907;SDS011;10116;53.112;7.356;2023-07-31T00:41:30;1.73;;;1.63;;
19907;SDS011;10116;53.112;7.356;2023-07-31T00:43:55;1.57;;;1.47;;
19907;SDS011;10116;53.112;7.356;2023-07-31T00:46:21;1.77;;;1.67;;
19907;SDS011;10116;53.112;7.356;2023-07-31T00:48:47;1.60;;;1.50;;
19907;SDS011;10116;53.112;7.356;2023-07-31T00:51:13;1.50;;;1.40;;
19907;SDS011;10116;53.112;7.356;2023-07-31T00:53:39;1.47;;;1.47;;
19907;SDS011;10116;53.112;7.356;2023-07-31T00:56:06;1.20;;;1.20;;
19907;SDS011;10116;53.112;7.356;2023-07-31T00:58:32;2.30;;;1.40;;
19907;SDS011;10116;53.112;7.356;2023-07-31T01:00:58;1.60;;;1.47;;
19907;SDS011;10116;53.112;7.356;2023-07-31T01:03:23;2.93;;;1.50;;
19907;SDS011;10116;53.112;7.356;2023-07-31T01:08:47;2.13;;;1.30;;
19907;SDS011;10116;53.112;7.356;2023-07-31T01:11:22;1.90;;;1.80;;
19907;SDS011;10116;53.112;7.356;2023-07-31T01:13:54;1.63;;;1.40;;
19907;SDS011;10116;53.112;7.356;2023-07-31T01:16:20;1.77;;;1.57;;
19907;SDS011;10116;53.112;7.356;2023-07-31T01:18:45;1.60;;;1.37;;
19907;SDS011;10116;53.112;7.356;2023-07-31T01:24:00;1.40;;;1.30;;
19907;SDS011;10116;53.112;7.356;2023-07-31T01:26:49;1.23;;;1.23;;
19907;SDS011;10116;53.112;7.356;2023-07-31T01:29:23;4.20;;;3.97;;
19907;SDS011;10116;53.112;7.356;2023-07-31T01:32:01;1.17;;;1.17;;
19907;SDS011;10116;53.112;7.356;2023-07-31T01:34:29;1.43;;;1.33;;
19907;SDS011;10116;53.112;7.356;2023-07-31T01:36:56;1.60;;;1.50;;
19907;SDS011;10116;53.112;7.356;2023-07-31T01:39:23;1.37;;;1.37;;
19907;SDS011;10116;53.112;7.356;2023-07-31T01:41:49;1.67;;;1.50;;
19907;SDS011;10116;53.112;7.356;2023-07-31T01:44:14;1.20;;;1.20;;
19907;SDS011;10116;53.112;7.356;2023-07-31T01:46:40;1.10;;;1.00;;
19907;SDS011;10116;53.112;7.356;2023-07-31T01:49:05;1.30;;;1.30;;
19907;SDS011;10116;53.112;7.356;2023-07-31T01:51:31;1.30;;;1.30;;
19907;SDS011;10116;53.112;7.356;2023-07-31T01:53:59;1.23;;;1.13;;
19907;SDS011;10116;53.112;7.356;2023-07-31T01:56:25;2.40;;;2.00;;
19907;SDS011;10116;53.112;7.356;2023-07-31T01:58:51;1.50;;;1.40;;
19907;SDS011;10116;53.112;7.356;2023-07-31T02:01:16;2.53;;;1.43;;
19907;SDS011;10116;53.112;7.356;2023-07-31T02:03:42;1.43;;;1.33;;
19907;SDS011;10116;53.112;7.356;2023-07-31T02:06:07;1.37;;;1.33;;
19907;SDS011;10116;53.112;7.356;2023-07-31T02:08:33;1.43;;;1.30;;
19907;SDS011;10116;53.112;7.356;2023-07-31T02:10:59;1.27;;;1.20;;
19907;SDS011;10116;53.112;7.356;2023-07-31T02:13:24;1.83;;;1.27;;
19907;SDS011;10116;53.112;7.356;2023-07-31T02:15:50;2.00;;;1.60;;
19907;SDS011;10116;53.112;7.356;2023-07-31T02:18:16;1.60;;;1.20;;
19907;SDS011;10116;53.112;7.356;2023-07-31T02:20:41;1.93;;;1.27;;
19907;SDS011;10116;53.112;7.356;2023-07-31T02:23:07;0.97;;;0.97;;
19907;SDS011;10116;53.112;7.356;2023-07-31T02:25:32;1.40;;;1.30;;
19907;SDS011;10116;53.112;7.356;2023-07-31T02:27:58;1.37;;;0.90;;
19907;SDS011;10116;53.112;7.356;2023-07-31T02:30:24;1.10;;;1.00;;
19907;SDS011;10116;53.112;7.356;2023-07-31T02:32:49;1.83;;;1.10;;
19907;SDS011;10116;53.112;7.356;2023-07-31T02:35:15;0.93;;;0.93;;
19907;SDS011;10116;53.112;7.356;2023-07-31T02:37:41;1.10;;;1.00;;
19907;SDS011;10116;53.112;7.356;2023-07-31T02:40:07;0.93;;;0.93;;
19907;SDS011;10116;53.112;7.356;2023-07-31T02:42:33;1.30;;;1.20;;
19907;SDS011;10116;53.112;7.356;2023-07-31T02:44:59;1.57;;;1.10;;
19907;SDS011;10116;53.112;7.356;2023-07-31T02:47:24;1.00;;;1.00;;
19907;SDS011;10116;53.112;7.356;2023-07-31T02:49:50;1.00;;;1.00;;
19907;SDS011;10116;53.112;7.356;2023-07-31T02:52:15;1.00;;;0.90;;
19907;SDS011;10116;53.112;7.356;2023-07-31T02:54:41;0.70;;;0.70;;
19907;SDS011;10116;53.112;7.356;2023-07-31T02:57:07;0.90;;;0.90;;
19907;SDS011;10116;53.112;7.356;2023-07-31T02:59:32;1.10;;;0.77;;
19907;SDS011;10116;53.112;7.356;2023-07-31T03:01:58;1.23;;;0.97;;
19907;SDS011;10116;53.112;7.356;2023-07-31T03:04:23;1.13;;;1.13;;
19907;SDS011;10116;53.112;7.356;2023-07-31T03:06:49;3.27;;;1.00;;
19907;SDS011;10116;53.112;7.356;2023-07-31T03:09:15;1.60;;;0.87;;
19907;SDS011;10116;53.112;7.356;2023-07-31T03:11:40;1.03;;;0.80;;
19907;SDS011;10116;53.112;7.356;2023-07-31T03:14:06;0.90;;;0.90;;
19907;SDS011;10116;53.112;7.356;2023-07-31T03:16:32;3.43;;;3.33;;
19907;SDS011;10116;53.112;7.356;2023-07-31T03:18:57;1.57;;;0.97;;
19907;SDS011;10116;53.112;7.356;2023-07-31T03:21:23;1.40;;;0.87;;
19907;SDS011;10116;53.112;7.356;2023-07-31T03:23:48;0.70;;;0.70;;
19907;SDS011;10116;53.112;7.356;2023-07-31T03:26:14;1.03;;;0.93;;
19907;SDS011;10116;53.112;7.356;2023-07-31T03:28:39;1.23;;;1.00;;
19907;SDS011;10116;53.112;7.356;2023-07-31T03:31:05;1.07;;;0.80;;
19907;SDS011;10116;53.112;7.356;2023-07-31T03:33:31;0.87;;;0.80;;
19907;SDS011;10116;53.112;7.356;2023-07-31T03:35:56;0.67;;;0.67;;
19907;SDS011;10116;53.112;7.356;2023-07-31T03:38:22;1.13;;;0.80;;
19907;SDS011;10116;53.112;7.356;2023-07-31T03:40:48;1.00;;;0.73;;
19907;SDS011;10116;53.112;7.356;2023-07-31T03:43:13;0.60;;;0.60;;
19907;SDS011;10116;53.112;7.356;2023-07-31T03:45:40;0.80;;;0.80;;
19907;SDS011;10116;53.112;7.356;2023-07-31T03:48:05;1.50;;;0.90;;
19907;SDS011;10116;53.112;7.356;2023-07-31T03:50:32;0.90;;;0.80;;
19907;SDS011;10116;53.112;7.356;2023-07-31T03:52:58;1.00;;;0.63;;
19907;SDS011;10116;53.112;7.356;2023-07-31T03:55:23;0.70;;;0.70;;
19907;SDS011;10116;53.112;7.356;2023-07-31T03:57:49;1.80;;;0.77;;
19907;SDS011;10116;53.112;7.356;2023-07-31T04:00:14;0.60;;;0.60;;
19907;SDS011;10116;53.112;7.356;2023-07-31T04:02:40;3.70;;;3.60;;
19907;SDS011;10116;53.112;7.356;2023-07-31T04:05:06;0.70;;;0.70;;
19907;SDS011;10116;53.112;7.356;2023-07-31T04:07:32;0.90;;;0.60;;
19907;SDS011;10116;53.112;7.356;2023-07-31T04:09:58;0.60;;;0.60;;
19907;SDS011;10116;53.112;7.356;2023-07-31T04:12:24;3.80;;;3.70;;
19907;SDS011;10116;53.112;7.356;2023-07-31T04:14:50;0.80;;;0.80;;
19907;SDS011;10116;53.112;7.356;2023-07-31T04:17:17;0.70;;;0.70;;
19907;SDS011;10116;53.112;7.356;2023-07-31T04:19:43;1.13;;;1.03;;
19907;SDS011;10116;53.112;7.356;2023-07-31T04:22:08;0.67;;;0.67;;
19907;SDS011;10116;53.112;7.356;2023-07-31T04:24:34;2.37;;;2.27;;
19907;SDS011;10116;53.112;7.356;2023-07-31T04:27:00;0.57;;;0.57;;
19907;SDS011;10116;53.112;7.356;2023-07-31T04:29:25;1.43;;;0.70;;
19907;SDS011;10116;53.112;7.356;2023-07-31T04:31:51;4.00;;;3.90;;
19907;SDS011;10116;53.112;7.356;2023-07-31T04:34:16;0.90;;;0.60;;
19907;SDS011;10116;53.112;7.356;2023-07-31T04:36:42;0.87;;;0.60;;
19907;SDS011;10116;53.112;7.356;2023-07-31T04:39:08;1.27;;;0.60;;
19907;SDS011;10116;53.112;7.356;2023-07-31T04:41:33;0.90;;;0.60;;
19907;SDS011;10116;53.112;7.356;2023-07-31T04:43:59;2.60;;;2.60;;
19907;SDS011;10116;53.112;7.356;2023-07-31T04:46:25;0.83;;;0.60;;
19907;SDS011;10116;53.112;7.356;2023-07-31T04:48:50;1.03;;;0.50;;
19907;SDS011;10116;53.112;7.356;2023-07-31T04:51:16;3.40;;;3.30;;
19907;SDS011;10116;53.112;7.356;2023-07-31T04:53:41;0.83;;;0.60;;
19907;SDS011;10116;53.112;7.356;2023-07-31T04:56:07;1.20;;;0.60;;
19907;SDS011;10116;53.112;7.356;2023-07-31T04:58:32;0.80;;;0.50;;
19907;SDS011;10116;53.112;7.356;2023-07-31T05:00:58;0.80;;;0.53;;
19907;SDS011;10116;53.112;7.356;2023-07-31T05:03:23;1.00;;;0.60;;
19907;SDS011;10116;53.112;7.356;2023-07-31T05:05:49;0.47;;;0.47;;
19907;SDS011;10116;53.112;7.356;2023-07-31T05:08:16;2.10;;;2.10;;
19907;SDS011;10116;53.112;7.356;2023-07-31T05:10:45;0.90;;;0.60;;
19907;SDS011;10116;53.112;7.356;2023-07-31T05:13:10;1.97;;;1.90;;
19907;SDS011;10116;53.112;7.356;2023-07-31T05:15:36;3.13;;;3.03;;
19907;SDS011;10116;53.112;7.356;2023-07-31T05:18:01;2.80;;;2.70;;
19907;SDS011;10116;53.112;7.356;2023-07-31T05:20:27;2.17;;;2.17;;
19907;SDS011;10116;53.112;7.356;2023-07-31T05:22:53;0.70;;;0.70;;
19907;SDS011;10116;53.112;7.356;2023-07-31T05:25:19;0.60;;;0.60;;
19907;SDS011;10116;53.112;7.356;2023-07-31T05:27:44;2.70;;;2.60;;
19907;SDS011;10116;53.112;7.356;2023-07-31T05:30:10;2.60;;;0.70;;
19907;SDS011;10116;53.112;7.356;2023-07-31T05:32:35;0.60;;;0.60;;
19907;SDS011;10116;53.112;7.356;2023-07-31T05:35:01;2.77;;;2.73;;
19907;SDS011;10116;53.112;7.356;2023-07-31T05:37:27;2.20;;;0.60;;
19907;SDS011;10116;53.112;7.356;2023-07-31T05:39:52;3.73;;;3.53;;
19907;SDS011;10116;53.112;7.356;2023-07-31T05:42:18;1.30;;;1.30;;
19907;SDS011;10116;53.112;7.356;2023-07-31T05:44:43;0.57;;;0.57;;
19907;SDS011;10116;53.112;7.356;2023-07-31T05:47:09;1.07;;;1.07;;
19907;SDS011;10116;53.112;7.356;2023-07-31T05:49:35;0.50;;;0.50;;
19907;SDS011;10116;53.112;7.356;2023-07-31T05:52:00;3.07;;;2.97;;
19907;SDS011;10116;53.112;7.356;2023-07-31T05:54:26;1.20;;;0.60;;
19907;SDS011;10116;53.112;7.356;2023-07-31T05:56:52;2.10;;;0.50;;
19907;SDS011;10116;53.112;7.356;2023-07-31T05:59:17;0.70;;;0.70;;
19907;SDS011;10116;53.112;7.356;2023-07-31T06:01:43;3.10;;;2.80;;
19907;SDS011;10116;53.112;7.356;2023-07-31T06:04:08;0.40;;;0.40;;
19907;SDS011;10116;53.112;7.356;2023-07-31T06:06:34;3.77;;;3.67;;
19907;SDS011;10116;53.112;7.356;2023-07-31T06:09:00;2.63;;;2.53;;
19907;SDS011;10116;53.112;7.356;2023-07-31T06:11:25;5.00;;;4.80;;
19907;SDS011;10116;53.112;7.356;2023-07-31T06:13:51;3.50;;;3.40;;
19907;SDS011;10116;53.112;7.356;2023-07-31T06:16:17;1.83;;;1.73;;
19907;SDS011;10116;53.112;7.356;2023-07-31T06:18:42;2.03;;;2.03;;
19907;SDS011;10116;53.112;7.356;2023-07-31T06:21:11;1.97;;;1.97;;
19907;SDS011;10116;53.112;7.356;2023-07-31T06:23:36;3.63;;;3.53;;
19907;SDS011;10116;53.112;7.356;2023-07-31T06:26:02;4.23;;;2.90;;
19907;SDS011;10116;53.112;7.356;2023-07-31T06:28:28;1.30;;;1.30;;
19907;SDS011;10116;53.112;7.356;2023-07-31T06:30:54;2.30;;;2.30;;
19907;SDS011;10116;53.112;7.356;2023-07-31T06:33:20;0.60;;;0.60;;
19907;SDS011;10116;53.112;7.356;2023-07-31T06:35:46;0.90;;;0.80;;
19907;SDS011;10116;53.112;7.356;2023-07-31T06:38:11;1.77;;;1.77;;
19907;SDS011;10116;53.112;7.356;2023-07-31T06:40:37;3.20;;;3.10;;
19907;SDS011;10116;53.112;7.356;2023-07-31T06:43:03;3.93;;;1.90;;
19907;SDS011;10116;53.112;7.356;2023-07-31T06:45:33;0.60;;;0.60;;
19907;SDS011;10116;53.112;7.356;2023-07-31T06:48:00;1.80;;;1.53;;
19907;SDS011;10116;53.112;7.356;2023-07-31T06:50:27;2.60;;;2.50;;
19907;SDS011;10116;53.112;7.356;2023-07-31T06:52:56;1.50;;;1.40;;
19907;SDS011;10116;53.112;7.356;2023-07-31T06:55:21;4.30;;;1.27;;
19907;SDS011;10116;53.112;7.356;2023-07-31T06:57:48;1.50;;;1.30;;
19907;SDS011;10116;53.112;7.356;2023-07-31T07:00:15;2.40;;;2.30;;
19907;SDS011;10116;53.112;7.356;2023-07-31T07:02:41;1.50;;;1.30;;
19907;SDS011;10116;53.112;7.356;2023-07-31T07:05:07;3.80;;;3.40;;
19907;SDS011;10116;53.112;7.356;2023-07-31T07:07:33;1.63;;;1.20;;
19907;SDS011;10116;53.112;7.356;2023-07-31T07:10:00;3.33;;;3.07;;
19907;SDS011;10116;53.112;7.356;2023-07-31T07:12:26;5.20;;;2.00;;
19907;SDS011;10116;53.112;7.356;2023-07-31T07:14:55;7.07;;;5.07;;
19907;SDS011;10116;53.112;7.356;2023-07-31T07:17:22;4.20;;;2.50;;
19907;SDS011;10116;53.112;7.356;2023-07-31T07:19:48;4.50;;;3.30;;
19907;SDS011;10116;53.112;7.356;2023-07-31T07:22:14;8.07;;;4.03;;
19907;SDS011;10116;53.112;7.356;2023-07-31T07:24:39;8.50;;;7.87;;
19907;SDS011;10116;53.112;7.356;2023-07-31T07:27:05;4.80;;;2.77;;
19907;SDS011;10116;53.112;7.356;2023-07-31T07:29:31;4.83;;;4.43;;
19907;SDS011;10116;53.112;7.356;2023-07-31T07:31:59;6.40;;;3.30;;
19907;SDS011;10116;53.112;7.356;2023-07-31T07:34:27;5.53;;;3.40;;
19907;SDS011;10116;53.112;7.356;2023-07-31T07:36:53;7.00;;;3.27;;
19907;SDS011;10116;53.112;7.356;2023-07-31T07:39:19;4.63;;;2.70;;
19907;SDS011;10116;53.112;7.356;2023-07-31T07:41:45;7.03;;;3.50;;
19907;SDS011;10116;53.112;7.356;2023-07-31T07:44:11;5.90;;;2.87;;
19907;SDS011;10116;53.112;7.356;2023-07-31T07:46:37;4.00;;;3.33;;
19907;SDS011;10116;53.112;7.356;2023-07-31T07:49:03;5.90;;;3.23;;
19907;SDS011;10116;53.112;7.356;2023-07-31T07:51:29;5.53;;;3.70;;
19907;SDS011;10116;53.112;7.356;2023-07-31T07:53:56;4.97;;;3.10;;
19907;SDS011;10116;53.112;7.356;2023-07-31T07:56:23;6.33;;;2.90;;
19907;SDS011;10116;53.112;7.356;2023-07-31T07:58:49;5.77;;;3.77;;
19907;SDS011;10116;53.112;7.356;2023-07-31T08:01:15;4.50;;;3.50;;
19907;SDS011;10116;53.112;7.356;2023-07-31T08:03:41;6.73;;;5.97;;
19907;SDS011;10116;53.112;7.356;2023-07-31T08:06:07;4.77;;;3.00;;
19907;SDS011;10116;53.112;7.356;2023-07-31T08:08:34;5.03;;;4.43;;
19907;SDS011;10116;53.112;7.356;2023-07-31T08:11:03;6.87;;;4.47;;
19907;SDS011;10116;53.112;7.356;2023-07-31T08:13:29;5.67;;;4.47;;
19907;SDS011;10116;53.112;7.356;2023-07-31T08:15:54;6.83;;;5.83;;
19907;SDS011;10116;53.112;7.356;2023-07-31T08:18:20;5.80;;;5.20;;
19907;SDS011;10116;53.112;7.356;2023-07-31T08:20:46;8.70;;;4.70;;
19907;SDS011;10116;53.112;7.356;2023-07-31T08:23:12;4.90;;;4.40;;
19907;SDS011;10116;53.112;7.356;2023-07-31T08:25:38;3.90;;;3.60;;
19907;SDS011;10116;53.112;7.356;2023-07-31T08:28:04;6.33;;;5.00;;
19907;SDS011;10116;53.112;7.356;2023-07-31T08:30:30;4.43;;;4.13;;
19907;SDS011;10116;53.112;7.356;2023-07-31T08:32:56;3.90;;;2.90;;
19907;SDS011;10116;53.112;7.356;2023-07-31T08:35:22;3.40;;;3.10;;
19907;SDS011;10116;53.112;7.356;2023-07-31T08:37:49;5.70;;;4.83;;
19907;SDS011;10116;53.112;7.356;2023-07-31T08:40:14;5.27;;;4.80;;
19907;SDS011;10116;53.112;7.356;2023-07-31T08:42:43;3.43;;;2.60;;
19907;SDS011;10116;53.112;7.356;2023-07-31T08:45:11;3.00;;;2.80;;
19907;SDS011;10116;53.112;7.356;2023-07-31T08:47:41;4.70;;;4.40;;
19907;SDS011;10116;53.112;7.356;2023-07-31T08:50:10;4.40;;;3.77;;
19907;SDS011;10116;53.112;7.356;2023-07-31T08:52:37;4.60;;;3.33;;
19907;SDS011;10116;53.112;7.356;2023-07-31T08:55:03;7.23;;;3.20;;
19907;SDS011;10116;53.112;7.356;2023-07-31T08:57:29;5.90;;;4.73;;
19907;SDS011;10116;53.112;7.356;2023-07-31T08:59:56;5.60;;;5.10;;
19907;SDS011;10116;53.112;7.356;2023-07-31T09:02:22;3.67;;;3.37;;
19907;SDS011;10116;53.112;7.356;2023-07-31T09:04:55;5.50;;;5.20;;
19907;SDS011;10116;53.112;7.356;2023-07-31T09:07:21;3.77;;;3.47;;
19907;SDS011;10116;53.112;7.356;2023-07-31T09:09:47;3.83;;;3.63;;
19907;SDS011;10116;53.112;7.356;2023-07-31T09:12:12;5.57;;;5.07;;
19907;SDS011;10116;53.112;7.356;2023-07-31T09:14:38;4.67;;;3.33;;
19907;SDS011;10116;53.112;7.356;2023-07-31T09:17:05;5.67;;;5.27;;
19907;SDS011;10116;53.112;7.356;2023-07-31T09:19:34;2.50;;;2.30;;
19907;SDS011;10116;53.112;7.356;2023-07-31T09:22:04;3.77;;;3.57;;
19907;SDS011;10116;53.112;7.356;2023-07-31T09:24:32;6.87;;;6.43;;
19907;SDS011;10116;53.112;7.356;2023-07-31T09:26:59;2.40;;;2.20;;
19907;SDS011;10116;53.112;7.356;2023-07-31T09:29:28;1.90;;;1.70;;
19907;SDS011;10116;53.112;7.356;2023-07-31T09:31:54;1.87;;;1.77;;
19907;SDS011;10116;53.112;7.356;2023-07-31T09:34:27;3.63;;;3.43;;
19907;SDS011;10116;53.112;7.356;2023-07-31T09:36:57;1.63;;;1.53;;
19907;SDS011;10116;53.112;7.356;2023-07-31T09:39:26;2.30;;;2.20;;
19907;SDS011;10116;53.112;7.356;2023-07-31T09:41:55;1.67;;;1.57;;
19907;SDS011;10116;53.112;7.356;2023-07-31T09:44:21;2.53;;;1.53;;
19907;SDS011;10116;53.112;7.356;2023-07-31T09:46:47;4.03;;;3.63;;
19907;SDS011;10116;53.112;7.356;2023-07-31T09:49:13;1.70;;;1.60;;
19907;SDS011;10116;53.112;7.356;2023-07-31T09:51:40;1.63;;;1.53;;
19907;SDS011;10116;53.112;7.356;2023-07-31T09:54:10;5.57;;;5.23;;
19907;SDS011;10116;53.112;7.356;2023-07-31T09:56:39;5.93;;;1.43;;
19907;SDS011;10116;53.112;7.356;2023-07-31T09:59:08;1.40;;;1.30;;
19907;SDS011;10116;53.112;7.356;2023-07-31T10:01:37;3.40;;;3.20;;
19907;SDS011;10116;53.112;7.356;2023-07-31T10:04:03;1.57;;;1.43;;
19907;SDS011;10116;53.112;7.356;2023-07-31T10:06:30;1.67;;;1.10;;
19907;SDS011;10116;53.112;7.356;2023-07-31T10:08:57;2.70;;;2.60;;
19907;SDS011;10116;53.112;7.356;2023-07-31T10:11:24;1.10;;;1.10;;
19907;SDS011;10116;53.112;7.356;2023-07-31T10:13:52;3.23;;;3.03;;
19907;SDS011;10116;53.112;7.356;2023-07-31T10:16:19;2.17;;;2.07;;
19907;SDS011;10116;53.112;7.356;2023-07-31T10:18:46;2.70;;;2.60;;
19907;SDS011;10116;53.112;7.356;2023-07-31T10:21:12;1.03;;;1.03;;
19907;SDS011;10116;53.112;7.356;2023-07-31T10:23:39;1.27;;;1.17;;
19907;SDS011;10116;53.112;7.356;2023-07-31T10:26:07;3.07;;;2.97;;
19907;SDS011;10116;53.112;7.356;2023-07-31T10:28:33;1.60;;;1.60;;
19907;SDS011;10116;53.112;7.356;2023-07-31T10:31:01;0.97;;;0.90;;
19907;SDS011;10116;53.112;7.356;2023-07-31T10:33:28;0.73;;;0.73;;
19907;SDS011;10116;53.112;7.356;2023-07-31T10:38:50;1.23;;;1.10;;
19907;SDS011;10116;53.112;7.356;2023-07-31T10:41:16;0.90;;;0.90;;
19907;SDS011;10116;53.112;7.356;2023-07-31T10:43:42;0.80;;;0.80;;
19907;SDS011;10116;53.112;7.356;2023-07-31T10:46:11;1.30;;;1.10;;
19907;SDS011;10116;53.112;7.356;2023-07-31T10:48:38;1.37;;;1.10;;
19907;SDS011;10116;53.112;7.356;2023-07-31T10:51:07;0.73;;;0.73;;
19907;SDS011;10116;53.112;7.356;2023-07-31T10:53:37;0.70;;;0.70;;
19907;SDS011;10116;53.112;7.356;2023-07-31T10:56:07;2.00;;;1.90;;
19907;SDS011;10116;53.112;7.356;2023-07-31T10:58:36;0.80;;;0.80;;
19907;SDS011;10116;53.112;7.356;2023-07-31T11:01:03;2.20;;;0.80;;
19907;SDS011;10116;53.112;7.356;2023-07-31T11:03:43;2.80;;;2.70;;
19907;SDS011;10116;53.112;7.356;2023-07-31T11:06:12;0.60;;;0.60;;
19907;SDS011;10116;53.112;7.356;2023-07-31T11:08:42;2.83;;;2.73;;
19907;SDS011;10116;53.112;7.356;2023-07-31T11:11:14;2.23;;;2.13;;
19907;SDS011;10116;53.112;7.356;2023-07-31T11:13:50;1.13;;;1.13;;
19907;SDS011;10116;53.112;7.356;2023-07-31T11:16:18;0.67;;;0.67;;
19907;SDS011;10116;53.112;7.356;2023-07-31T11:18:45;0.90;;;0.60;;
19907;SDS011;10116;53.112;7.356;2023-07-31T11:21:12;0.90;;;0.90;;
19907;SDS011;10116;53.112;7.356;2023-07-31T11:23:47;1.20;;;0.60;;
19907;SDS011;10116;53.112;7.356;2023-07-31T11:26:13;3.73;;;3.63;;
19907;SDS011;10116;53.112;7.356;2023-07-31T11:28:39;0.60;;;0.60;;
19907;SDS011;10116;53.112;7.356;2023-07-31T11:31:08;1.83;;;0.60;;
19907;SDS011;10116;53.112;7.356;2023-07-31T11:33:35;0.40;;;0.40;;
19907;SDS011;10116;53.112;7.356;2023-07-31T11:36:00;1.97;;;1.97;;
19907;SDS011;10116;53.112;7.356;2023-07-31T11:38:30;0.60;;;0.60;;
19907;SDS011;10116;53.112;7.356;2023-07-31T11:41:03;1.30;;;1.30;;
19907;SDS011;10116;53.112;7.356;2023-07-31T11:43:30;1.30;;;1.30;;
19907;SDS011;10116;53.112;7.356;2023-07-31T11:45:57;1.10;;;0.67;;
19907;SDS011;10116;53.112;7.356;2023-07-31T11:50:50;2.73;;;2.63;;
19907;SDS011;10116;53.112;7.356;2023-07-31T11:53:17;0.90;;;0.90;;
19907;SDS011;10116;53.112;7.356;2023-07-31T11:55:47;1.90;;;1.90;;
19907;SDS011;10116;53.112;7.356;2023-07-31T11:58:13;1.73;;;1.63;;
19907;SDS011;10116;53.112;7.356;2023-07-31T12:00:41;2.47;;;2.37;;
19907;SDS011;10116;53.112;7.356;2023-07-31T12:03:07;0.50;;;0.50;;
19907;SDS011;10116;53.112;7.356;2023-07-31T12:05:33;1.27;;;1.27;;
19907;SDS011;10116;53.112;7.356;2023-07-31T12:07:58;0.40;;;0.40;;
19907;SDS011;10116;53.112;7.356;2023-07-31T12:10:28;1.33;;;1.33;;
19907;SDS011;10116;53.112;7.356;2023-07-31T12:13:05;0.60;;;0.50;;
19907;SDS011;10116;53.112;7.356;2023-07-31T12:15:43;2.63;;;2.43;;
19907;SDS011;10116;53.112;7.356;2023-07-31T12:18:10;0.40;;;0.30;;
19907;SDS011;10116;53.112;7.356;2023-07-31T12:20:42;0.67;;;0.50;;
19907;SDS011;10116;53.112;7.356;2023-07-31T12:23:22;3.00;;;2.80;;
19907;SDS011;10116;53.112;7.356;2023-07-31T12:31:08;1.03;;;0.60;;
19907;SDS011;10116;53.112;7.356;2023-07-31T12:33:36;1.50;;;1.50;;
19907;SDS011;10116;53.112;7.356;2023-07-31T12:36:04;0.70;;;0.40;;
19907;SDS011;10116;53.112;7.356;2023-07-31T12:38:32;2.67;;;2.60;;
19907;SDS011;10116;53.112;7.356;2023-07-31T12:40:58;1.57;;;0.73;;
19907;SDS011;10116;53.112;7.356;2023-07-31T12:43:24;2.43;;;2.43;;
19907;SDS011;10116;53.112;7.356;2023-07-31T12:45:49;1.03;;;0.70;;
19907;SDS011;10116;53.112;7.356;2023-07-31T12:48:15;2.40;;;2.40;;
19907;SDS011;10116;53.112;7.356;2023-07-31T12:50:41;2.13;;;2.13;;
19907;SDS011;10116;53.112;7.356;2023-07-31T12:53:06;2.53;;;2.43;;
19907;SDS011;10116;53.112;7.356;2023-07-31T12:55:32;2.43;;;2.43;;
19907;SDS011;10116;53.112;7.356;2023-07-31T12:58:00;1.80;;;1.70;;
19907;SDS011;10116;53.112;7.356;2023-07-31T13:00:26;1.23;;;1.23;;
19907;SDS011;10116;53.112;7.356;2023-07-31T13:02:52;0.57;;;0.37;;
19907;SDS011;10116;53.112;7.356;2023-07-31T13:05:18;2.07;;;2.07;;
19907;SDS011;10116;53.112;7.356;2023-07-31T13:07:45;2.40;;;2.33;;
19907;SDS011;10116;53.112;7.356;2023-07-31T13:10:11;1.77;;;1.70;;
19907;SDS011;10116;53.112;7.356;2023-07-31T13:12:36;1.97;;;0.97;;
19907;SDS011;10116;53.112;7.356;2023-07-31T13:15:03;0.73;;;0.40;;
19907;SDS011;10116;53.112;7.356;2023-07-31T13:17:29;1.77;;;1.77;;
19907;SDS011;10116;53.112;7.356;2023-07-31T13:19:55;0.60;;;0.60;;
19907;SDS011;10116;53.112;7.356;2023-07-31T13:22:21;2.20;;;2.20;;
19907;SDS011;10116;53.112;7.356;2023-07-31T13:24:46;1.43;;;0.50;;
19907;SDS011;10116;53.112;7.356;2023-07-31T13:27:12;2.57;;;2.47;;
19907;SDS011;10116;53.112;7.356;2023-07-31T13:29:38;2.03;;;2.03;;
19907;SDS011;10116;53.112;7.356;2023-07-31T13:32:04;1.73;;;1.73;;
19907;SDS011;10116;53.112;7.356;2023-07-31T13:34:30;2.00;;;2.00;;
19907;SDS011;10116;53.112;7.356;2023-07-31T13:36:55;2.40;;;1.40;;
19907;SDS011;10116;53.112;7.356;2023-07-31T13:39:21;1.63;;;1.63;;
19907;SDS011;10116;53.112;7.356;2023-07-31T13:41:47;1.47;;;1.47;;
19907;SDS011;10116;53.112;7.356;2023-07-31T13:44:12;1.40;;;1.40;;
19907;SDS011;10116;53.112;7.356;2023-07-31T13:46:38;1.13;;;1.13;;
19907;SDS011;10116;53.112;7.356;2023-07-31T13:49:03;0.57;;;0.40;;
19907;SDS011;10116;53.112;7.356;2023-07-31T13:51:29;3.03;;;2.93;;
19907;SDS011;10116;53.112;7.356;2023-07-31T13:53:54;0.40;;;0.30;;
19907;SDS011;10116;53.112;7.356;2023-07-31T13:56:20;3.20;;;3.10;;
19907;SDS011;10116;53.112;7.356;2023-07-31T13:58:46;0.97;;;0.50;;
19907;SDS011;10116;53.112;7.356;2023-07-31T14:01:11;2.43;;;2.43;;
19907;SDS011;10116;53.112;7.356;2023-07-31T14:03:37;0.40;;;0.40;;
19907;SDS011;10116;53.112;7.356;2023-07-31T14:06:02;1.50;;;1.50;;
19907;SDS011;10116;53.112;7.356;2023-07-31T14:08:28;0.40;;;0.40;;
19907;SDS011;10116;53.112;7.356;2023-07-31T14:10:54;0.50;;;0.47;;
19907;SDS011;10116;53.112;7.356;2023-07-31T14:13:20;1.33;;;0.50;;
19907;SDS011;10116;53.112;7.356;2023-07-31T14:15:46;0.50;;;0.40;;
19907;SDS011;10116;53.112;7.356;2023-07-31T14:18:11;1.10;;;1.10;;
19907;SDS011;10116;53.112;7.356;2023-07-31T14:20:37;0.77;;;0.40;;
19907;SDS011;10116;53.112;7.356;2023-07-31T14:23:03;2.63;;;2.53;;
19907;SDS011;10116;53.112;7.356;2023-07-31T14:25:28;0.50;;;0.50;;
19907;SDS011;10116;53.112;7.356;2023-07-31T14:27:54;2.17;;;2.17;;
19907;SDS011;10116;53.112;7.356;2023-07-31T14:30:19;1.60;;;0.60;;
19907;SDS011;10116;53.112;7.356;2023-07-31T14:32:45;2.30;;;2.30;;
19907;SDS011;10116;53.112;7.356;2023-07-31T14:35:11;1.80;;;1.80;;
19907;SDS011;10116;53.112;7.356;2023-07-31T14:37:38;0.70;;;0.70;;
19907;SDS011;10116;53.112;7.356;2023-07-31T14:40:08;1.13;;;1.13;;
19907;SDS011;10116;53.112;7.356;2023-07-31T14:42:35;2.07;;;0.70;;
19907;SDS011;10116;53.112;7.356;2023-07-31T14:45:01;2.90;;;2.80;;
19907;SDS011;10116;53.112;7.356;2023-07-31T14:47:27;3.00;;;2.90;;
19907;SDS011;10116;53.112;7.356;2023-07-31T14:49:52;3.53;;;3.37;;
19907;SDS011;10116;53.112;7.356;2023-07-31T14:52:18;2.30;;;2.20;;
19907;SDS011;10116;53.112;7.356;2023-07-31T14:54:44;1.17;;;0.80;;
19907;SDS011;10116;53.112;7.356;2023-07-31T14:57:10;0.87;;;0.87;;
19907;SDS011;10116;53.112;7.356;2023-07-31T14:59:36;1.00;;;1.00;;